METAR Formatted Surface Weather Observation
Issued by NWS

Home | Current Version | Previous Version | Text Only | Print | Product List | Glossary On
Versions: 1 2 3 4 5 6 7 8 9 10
000
SAUS46 KSEW 171104
MTRSMP
METAR KSMP 171056Z AUTO 00000KT 10SM FEW090 OVC110 12/09 A2991 RMK
AO2 SLP109 T01170089 $



USA.gov is the U.S. government's official web portal to all federal, state and local government web resources and services.